createdAt,value
2022-12-10T00:01:09.438Z,33.95
2022-12-10T00:03:36.769Z,29.67
2022-12-10T00:06:05.760Z,32.00
2022-12-10T00:08:32.655Z,32.05
2022-12-10T00:10:59.473Z,32.03
2022-12-10T00:13:26.314Z,33.25
2022-12-10T00:15:53.139Z,30.55
2022-12-10T00:18:19.954Z,30.15
2022-12-10T00:20:46.958Z,32.50
2022-12-10T00:23:17.523Z,30.27
2022-12-10T00:25:46.972Z,30.25
2022-12-10T00:28:14.190Z,33.10
2022-12-10T00:30:41.082Z,28.90
2022-12-10T00:33:08.007Z,32.25
2022-12-10T00:35:38.033Z,28.15
2022-12-10T00:38:05.002Z,28.83
2022-12-10T00:40:31.884Z,26.88
2022-12-10T00:42:58.753Z,31.00
2022-12-10T00:45:25.559Z,29.15
2022-12-10T00:47:52.498Z,29.25
2022-12-10T00:50:19.357Z,27.25
2022-12-10T00:52:46.855Z,28.58
2022-12-10T00:55:13.719Z,27.52
2022-12-10T00:57:40.527Z,28.42
2022-12-10T01:00:08.393Z,21.70
2022-12-10T01:02:35.557Z,23.25
2022-12-10T01:05:02.438Z,23.15
2022-12-10T01:07:29.274Z,25.25
2022-12-10T01:09:56.333Z,25.70
2022-12-10T01:12:23.286Z,28.63
2022-12-10T01:14:50.072Z,24.55
2022-12-10T01:17:16.995Z,28.30
2022-12-10T01:19:43.911Z,28.92
2022-12-10T01:22:10.789Z,30.05
2022-12-10T01:24:37.621Z,28.58
2022-12-10T01:27:04.888Z,31.63
2022-12-10T01:29:31.802Z,33.22
2022-12-10T01:31:59.021Z,29.23
2022-12-10T01:34:26.435Z,31.38
2022-12-10T01:36:54.920Z,28.17
2022-12-10T01:39:23.338Z,31.95
2022-12-10T01:41:56.363Z,32.47
2022-12-10T01:44:23.136Z,28.23
2022-12-10T01:46:55.616Z,28.95
2022-12-10T01:49:36.241Z,30.23
2022-12-10T01:52:04.626Z,32.95
2022-12-10T01:54:37.930Z,30.63
2022-12-10T01:57:23.700Z,29.92
2022-12-10T01:59:55.383Z,26.48
2022-12-10T02:02:36.764Z,26.55
2022-12-10T02:05:06.889Z,28.90
2022-12-10T02:07:54.430Z,26.00
2022-12-10T02:10:30.864Z,30.85
2022-12-10T02:13:06.834Z,25.75
2022-12-10T02:15:49.022Z,24.88
2022-12-10T02:18:25.145Z,28.30
2022-12-10T02:20:58.240Z,27.40
2022-12-10T02:23:42.673Z,26.48
2022-12-10T02:26:20.194Z,27.42
2022-12-10T02:29:13.529Z,31.05
2022-12-10T02:31:47.753Z,28.83
2022-12-10T02:34:17.412Z,34.53
2022-12-10T02:36:47.040Z,31.48
2022-12-10T02:39:25.820Z,31.10
2022-12-10T02:41:55.470Z,33.97
2022-12-10T02:44:25.190Z,31.67
2022-12-10T02:46:56.302Z,29.08
2022-12-10T02:49:24.763Z,30.98
2022-12-10T02:51:51.591Z,32.13
2022-12-10T02:54:46.532Z,36.97
2022-12-10T02:57:28.203Z,32.67
2022-12-10T03:00:10.890Z,31.65
2022-12-10T03:02:40.757Z,34.30
2022-12-10T03:05:19.744Z,31.05
2022-12-10T03:08:04.367Z,34.63
2022-12-10T03:10:40.676Z,37.17
2022-12-10T03:13:12.332Z,30.63
2022-12-10T03:15:42.289Z,31.20
2022-12-10T03:18:11.841Z,32.17
2022-12-10T03:20:43.925Z,30.60
2022-12-10T03:23:14.800Z,33.85
2022-12-10T03:25:42.212Z,31.55
2022-12-10T03:28:10.069Z,32.78
2022-12-10T03:30:39.399Z,31.05
2022-12-10T03:33:06.779Z,31.17
2022-12-10T03:35:34.406Z,31.40
2022-12-10T03:38:02.184Z,28.33
2022-12-10T03:40:29.547Z,28.17
2022-12-10T03:42:56.457Z,27.05
2022-12-10T03:45:23.380Z,27.30
2022-12-10T03:47:50.484Z,32.05
2022-12-10T03:50:17.671Z,32.03
2022-12-10T03:52:44.663Z,31.88
2022-12-10T03:55:12.076Z,34.80
2022-12-10T03:57:39.103Z,34.40
2022-12-10T04:00:07.926Z,36.60
2022-12-10T04:02:35.322Z,37.80
2022-12-10T04:05:02.183Z,36.25
2022-12-10T04:07:29.015Z,37.00
2022-12-10T04:09:55.831Z,36.55
2022-12-10T04:12:22.691Z,38.10
2022-12-10T04:15:08.367Z,35.58
2022-12-10T04:17:35.553Z,39.47
2022-12-10T04:20:02.827Z,39.45
2022-12-10T04:22:48.738Z,39.13
2022-12-10T04:25:34.031Z,39.08
2022-12-10T04:28:00.906Z,36.67
2022-12-10T04:30:27.796Z,40.90
2022-12-10T04:32:54.723Z,37.08
2022-12-10T04:35:21.687Z,40.40
2022-12-10T04:37:48.621Z,40.53
2022-12-10T04:40:15.703Z,41.90
2022-12-10T04:42:42.535Z,38.38
2022-12-10T04:45:09.855Z,37.83
2022-12-10T04:47:36.968Z,38.10
2022-12-10T04:50:04.375Z,41.08
2022-12-10T04:52:31.167Z,37.33
2022-12-10T04:54:58.034Z,36.17
2022-12-10T04:57:27.275Z,40.42
2022-12-10T04:59:54.118Z,38.90
2022-12-10T05:02:21.181Z,37.45
2022-12-10T05:04:50.033Z,33.45
2022-12-10T05:07:17.028Z,37.15
2022-12-10T05:09:43.927Z,43.55
2022-12-10T05:12:10.869Z,34.38
2022-12-10T05:14:37.987Z,34.83
2022-12-10T05:17:04.944Z,37.38
2022-12-10T05:19:31.802Z,36.08
2022-12-10T05:22:17.226Z,34.72
2022-12-10T05:24:44.193Z,35.45
2022-12-10T05:27:11.097Z,38.53
2022-12-10T05:29:38.032Z,42.40
2022-12-10T05:32:05.643Z,39.40
2022-12-10T05:34:32.599Z,36.45
2022-12-10T05:36:59.582Z,43.85
2022-12-10T05:39:26.353Z,41.53
2022-12-10T05:41:53.225Z,39.47
2022-12-10T05:44:20.009Z,40.53
2022-12-10T05:46:47.056Z,38.92
2022-12-10T05:49:14.096Z,42.83
2022-12-10T05:51:40.978Z,41.25
2022-12-10T05:54:08.336Z,46.13
2022-12-10T05:56:36.440Z,42.90
2022-12-10T05:59:04.210Z,47.60
2022-12-10T06:01:34.290Z,44.63
2022-12-10T06:04:03.878Z,49.55
2022-12-10T06:06:33.054Z,46.28
2022-12-10T06:09:00.265Z,49.70
2022-12-10T06:11:28.492Z,51.80
2022-12-10T06:13:57.998Z,45.58
2022-12-10T06:16:26.371Z,48.15
2022-12-10T06:18:53.892Z,46.55
2022-12-10T06:21:22.065Z,49.38
2022-12-10T06:23:54.718Z,47.60
2022-12-10T06:26:24.670Z,45.95
2022-12-10T06:28:51.938Z,44.63
2022-12-10T06:31:19.097Z,47.70
2022-12-10T06:33:46.586Z,49.30
2022-12-10T06:36:15.884Z,50.50
2022-12-10T06:38:43.152Z,50.65
2022-12-10T06:41:14.447Z,48.20
2022-12-10T06:43:41.363Z,46.95
2022-12-10T06:46:11.966Z,49.70
2022-12-10T06:48:39.205Z,49.47
2022-12-10T06:51:06.560Z,53.25
2022-12-10T06:53:34.730Z,52.08
2022-12-10T06:56:03.131Z,48.25
2022-12-10T06:58:31.534Z,54.85
2022-12-10T07:01:10.339Z,54.50
2022-12-10T07:03:37.991Z,49.78
2022-12-10T07:06:13.263Z,51.00
2022-12-10T07:08:40.292Z,43.55
2022-12-10T07:11:08.902Z,42.92
2022-12-10T07:13:36.498Z,48.97
2022-12-10T07:16:04.618Z,49.20
2022-12-10T07:18:31.504Z,50.92
2022-12-10T07:20:58.354Z,54.33
2022-12-10T07:23:25.302Z,52.35
2022-12-10T07:25:55.547Z,49.53
2022-12-10T07:28:22.441Z,51.60
2022-12-10T07:30:49.612Z,45.55
2022-12-10T07:33:16.446Z,48.25
2022-12-10T07:35:48.853Z,48.08
2022-12-10T07:38:16.594Z,49.08
2022-12-10T07:40:43.411Z,50.28
2022-12-10T07:43:10.183Z,48.17
2022-12-10T07:45:37.023Z,39.97
2022-12-10T07:48:04.049Z,38.65
2022-12-10T07:50:31.107Z,40.75
2022-12-10T07:52:58.242Z,41.70
2022-12-10T07:55:25.151Z,43.25
2022-12-10T07:57:52.042Z,46.67
2022-12-10T08:00:19.151Z,41.63
2022-12-10T08:02:45.996Z,43.45
2022-12-10T08:05:12.922Z,39.22
2022-12-10T08:07:39.842Z,40.83
2022-12-10T08:10:07.259Z,42.67
2022-12-10T08:12:34.402Z,43.92
2022-12-10T08:15:03.355Z,44.78
2022-12-10T08:17:30.178Z,46.28
2022-12-10T08:19:57.133Z,39.38
2022-12-10T08:22:24.003Z,39.80
2022-12-10T08:24:50.857Z,34.35
2022-12-10T08:27:17.754Z,38.22
2022-12-10T08:29:44.726Z,43.90
2022-12-10T08:32:11.628Z,43.30
2022-12-10T08:34:38.607Z,38.28
2022-12-10T08:37:10.640Z,41.13
2022-12-10T08:39:39.056Z,36.38
2022-12-10T08:42:05.975Z,41.17
2022-12-10T08:44:32.801Z,41.78
2022-12-10T08:46:59.732Z,34.75
2022-12-10T08:49:26.585Z,34.83
2022-12-10T08:51:53.480Z,36.60
2022-12-10T08:54:20.310Z,34.10
2022-12-10T08:56:47.146Z,35.35
2022-12-10T08:59:14.289Z,32.90
2022-12-10T09:01:41.204Z,33.55
2022-12-10T09:04:08.846Z,31.52
2022-12-10T09:06:35.936Z,29.50
2022-12-10T09:09:03.036Z,33.95
2022-12-10T09:11:35.396Z,60.25
2022-12-10T09:14:03.118Z,41.45
2022-12-10T09:16:32.656Z,34.90
2022-12-10T09:19:00.205Z,28.52
2022-12-10T09:21:27.230Z,30.08
2022-12-10T09:23:54.126Z,32.67
2022-12-10T09:26:21.488Z,28.50
2022-12-10T09:28:48.820Z,29.95
2022-12-10T09:31:19.712Z,28.20
2022-12-10T09:33:49.246Z,29.83
2022-12-10T09:36:16.497Z,29.85
2022-12-10T09:38:45.454Z,33.35
2022-12-10T09:41:23.522Z,28.63
2022-12-10T09:44:08.389Z,30.02
2022-12-10T09:46:58.937Z,27.65
2022-12-10T09:49:44.266Z,27.77
2022-12-10T09:52:19.051Z,27.90
2022-12-10T09:54:53.335Z,30.50
2022-12-10T09:57:39.405Z,29.73
2022-12-10T10:00:26.301Z,25.15
2022-12-10T10:03:00.101Z,29.67
2022-12-10T10:05:33.848Z,28.70
2022-12-10T10:08:04.733Z,25.42
2022-12-10T10:10:34.603Z,31.00
2022-12-10T10:13:09.889Z,23.42
2022-12-10T10:15:41.026Z,28.15
2022-12-10T10:18:39.168Z,28.15
2022-12-10T10:21:34.743Z,31.00
2022-12-10T10:24:07.063Z,28.27
2022-12-10T10:26:36.908Z,28.48
2022-12-10T10:29:07.807Z,29.80
2022-12-10T10:31:36.342Z,28.45
2022-12-10T10:34:23.300Z,32.55
2022-12-10T10:36:58.116Z,27.33
2022-12-10T10:39:30.680Z,45.28
2022-12-10T10:41:59.816Z,38.50
2022-12-10T10:44:36.210Z,36.08
2022-12-10T10:47:03.395Z,36.20
2022-12-10T10:49:34.805Z,29.17
2022-12-10T10:52:14.235Z,28.92
2022-12-10T10:54:43.633Z,29.73
2022-12-10T10:57:34.057Z,28.75
2022-12-10T11:00:20.865Z,30.27
2022-12-10T11:02:48.068Z,33.15
2022-12-10T11:05:18.086Z,30.42
2022-12-10T11:07:45.066Z,29.15
2022-12-10T11:10:19.451Z,31.42
2022-12-10T11:13:05.349Z,31.25
2022-12-10T11:15:41.091Z,28.98
2022-12-10T11:18:44.435Z,33.20
2022-12-10T11:21:14.240Z,31.77
2022-12-10T11:23:44.164Z,32.10
2022-12-10T11:26:42.167Z,30.55
2022-12-10T11:29:24.611Z,35.08
2022-12-10T11:32:18.540Z,35.15
2022-12-10T11:35:10.965Z,35.00
2022-12-10T11:37:52.004Z,31.65
2022-12-10T11:40:27.622Z,36.22
2022-12-10T11:43:13.008Z,39.20
2022-12-10T11:46:15.927Z,36.38
2022-12-10T11:49:21.975Z,38.60
2022-12-10T11:52:10.432Z,34.55
2022-12-10T11:54:52.674Z,35.47
2022-12-10T11:57:47.611Z,31.80
2022-12-10T12:00:14.430Z,33.25
2022-12-10T12:02:50.123Z,35.78
2022-12-10T12:05:25.828Z,36.33
2022-12-10T12:08:27.517Z,37.10
2022-12-10T12:11:00.500Z,36.72
2022-12-10T12:13:47.460Z,39.00
2022-12-10T12:16:44.523Z,35.70
2022-12-10T12:19:41.144Z,34.28
2022-12-10T12:22:35.640Z,31.52
2022-12-10T12:25:27.929Z,32.67
2022-12-10T12:28:01.249Z,33.53
2022-12-10T12:30:28.608Z,34.58
2022-12-10T12:33:27.373Z,30.30
2022-12-10T12:36:00.747Z,30.38
2022-12-10T12:38:27.530Z,27.60
2022-12-10T12:41:07.612Z,31.70
2022-12-10T12:43:37.559Z,32.88
2022-12-10T12:46:17.102Z,32.95
2022-12-10T12:49:30.314Z,30.25
2022-12-10T12:52:17.191Z,33.17
2022-12-10T12:54:44.495Z,32.00
2022-12-10T12:57:23.325Z,31.98
2022-12-10T12:59:53.010Z,30.17
2022-12-10T13:02:51.728Z,30.42
2022-12-10T13:05:36.299Z,33.25
2022-12-10T13:08:21.433Z,33.80
2022-12-10T13:10:53.177Z,35.58
2022-12-10T13:13:26.040Z,32.45
2022-12-10T13:15:53.346Z,35.70
2022-12-10T13:18:39.515Z,29.95
2022-12-10T13:21:30.165Z,32.97
2022-12-10T13:24:13.646Z,38.13
2022-12-10T13:27:03.488Z,38.85
2022-12-10T13:29:42.516Z,39.28
2022-12-10T13:32:18.023Z,32.67
2022-12-10T13:34:45.401Z,37.55
2022-12-10T13:37:27.378Z,35.58
2022-12-10T13:40:00.679Z,36.58
2022-12-10T13:42:50.774Z,32.00
2022-12-10T13:45:23.319Z,35.50
2022-12-10T13:48:15.212Z,33.28
2022-12-10T13:51:00.528Z,32.83
2022-12-10T13:53:53.239Z,35.45
2022-12-10T13:57:05.243Z,35.22
2022-12-10T13:59:55.393Z,31.77
2022-12-10T14:02:44.356Z,33.28
2022-12-10T14:05:48.841Z,29.77
2022-12-10T14:08:20.803Z,30.00
2022-12-10T14:10:48.680Z,31.63
2022-12-10T14:13:19.891Z,25.52
2022-12-10T14:15:56.681Z,32.75
2022-12-10T14:18:24.679Z,30.20
2022-12-10T14:20:54.357Z,27.88
2022-12-10T14:23:36.290Z,34.78
2022-12-10T14:26:17.660Z,30.55
2022-12-10T14:28:56.274Z,29.90
2022-12-10T14:31:29.063Z,25.88
2022-12-10T14:34:01.834Z,30.38
2022-12-10T14:36:44.211Z,30.92
2022-12-10T14:39:20.421Z,34.28
2022-12-10T14:41:51.019Z,31.35
2022-12-10T14:44:19.276Z,30.17
2022-12-10T14:46:49.109Z,31.75
2022-12-10T14:49:27.374Z,25.80
2022-12-10T14:51:57.388Z,29.35
2022-12-10T14:54:35.340Z,29.30
2022-12-10T14:57:09.406Z,27.90
2022-12-10T14:59:57.916Z,25.25
2022-12-10T15:02:38.999Z,25.27
2022-12-10T15:05:23.349Z,25.98
2022-12-10T15:07:58.110Z,28.10
2022-12-10T15:10:47.235Z,32.10
2022-12-10T15:13:27.192Z,26.10
2022-12-10T15:15:57.195Z,29.80
2022-12-10T15:18:38.113Z,27.70
2022-12-10T15:21:06.802Z,31.50
2022-12-10T15:23:36.239Z,26.52
2022-12-10T15:26:12.700Z,33.03
2022-12-10T15:28:41.380Z,28.52
2022-12-10T15:31:27.790Z,26.35
2022-12-10T15:33:59.802Z,27.35
2022-12-10T15:36:30.377Z,27.10
2022-12-10T15:38:57.914Z,27.77
2022-12-10T15:41:43.585Z,26.58
2022-12-10T15:44:35.635Z,29.25
2022-12-10T15:47:15.639Z,27.02
2022-12-10T15:49:42.852Z,28.58
2022-12-10T15:52:25.467Z,25.40
2022-12-10T15:54:54.032Z,25.98
2022-12-10T15:57:33.800Z,25.13
2022-12-10T16:00:07.289Z,27.75
2022-12-10T16:03:05.287Z,27.95
2022-12-10T16:05:35.949Z,32.35
2022-12-10T16:08:12.181Z,28.52
2022-12-10T16:10:39.622Z,25.63
2022-12-10T16:13:12.317Z,30.10
2022-12-10T16:15:52.357Z,26.55
2022-12-10T16:18:19.644Z,31.45
2022-12-10T16:20:46.855Z,29.42
2022-12-10T16:23:15.236Z,29.25
2022-12-10T16:25:45.213Z,31.77
2022-12-10T16:28:14.846Z,31.67
2022-12-10T16:30:55.879Z,27.85
2022-12-10T16:33:25.454Z,28.27
2022-12-10T16:35:54.027Z,30.60
2022-12-10T16:38:21.470Z,29.08
2022-12-10T16:40:49.103Z,32.47
2022-12-10T16:43:18.482Z,33.88
2022-12-10T16:45:45.805Z,29.25
2022-12-10T16:48:13.177Z,28.80
2022-12-10T16:50:41.753Z,29.20
2022-12-10T16:53:28.912Z,28.60
2022-12-10T16:55:57.463Z,43.55
2022-12-10T16:58:25.284Z,39.80
2022-12-10T17:00:54.101Z,29.52
2022-12-10T17:03:24.491Z,30.80
2022-12-10T17:06:00.027Z,32.88
2022-12-10T17:08:28.698Z,35.28
2022-12-10T17:11:15.609Z,33.70
2022-12-10T17:13:44.478Z,31.23
2022-12-10T17:16:15.362Z,35.40
2022-12-10T17:18:42.389Z,31.38
2022-12-10T17:21:09.258Z,32.55
2022-12-10T17:23:36.107Z,31.70
2022-12-10T17:26:03.048Z,28.45
2022-12-10T17:28:31.961Z,31.90
2022-12-10T17:30:59.436Z,30.50
2022-12-10T17:33:26.315Z,30.95
2022-12-10T17:35:54.958Z,32.03
2022-12-10T17:38:24.698Z,31.23
2022-12-10T17:40:52.796Z,32.30
2022-12-10T17:43:19.819Z,28.33
2022-12-10T17:45:47.062Z,31.33
2022-12-10T17:48:16.265Z,32.33
2022-12-10T17:50:45.746Z,33.08
2022-12-10T17:53:18.800Z,29.38
2022-12-10T17:55:56.401Z,31.13
2022-12-10T17:58:24.144Z,31.20
2022-12-10T18:00:52.301Z,31.92
2022-12-10T18:03:19.888Z,28.02
2022-12-10T18:05:47.090Z,26.45
2022-12-10T18:08:23.845Z,29.67
2022-12-10T18:10:53.878Z,30.15
2022-12-10T18:13:22.066Z,28.80
2022-12-10T18:15:49.305Z,27.35
2022-12-10T18:18:16.391Z,25.85
2022-12-10T18:20:43.399Z,27.90
2022-12-10T18:23:11.966Z,28.35
2022-12-10T18:25:40.856Z,27.75
2022-12-10T18:28:31.071Z,22.25
2022-12-10T18:31:02.420Z,28.67
2022-12-10T18:33:38.407Z,28.73
2022-12-10T18:36:05.566Z,25.90
2022-12-10T18:38:32.594Z,31.50
2022-12-10T18:40:59.426Z,28.33
2022-12-10T18:43:26.470Z,27.55
2022-12-10T18:45:53.336Z,26.58
2022-12-10T18:48:20.211Z,30.63
2022-12-10T18:50:47.205Z,27.30
2022-12-10T18:53:14.047Z,25.77
2022-12-10T18:55:40.920Z,27.02
2022-12-10T18:58:10.134Z,26.75
2022-12-10T19:00:37.338Z,24.33
2022-12-10T19:03:04.803Z,24.77
2022-12-10T19:05:31.673Z,24.48
2022-12-10T19:07:58.621Z,23.40
2022-12-10T19:10:26.322Z,24.58
2022-12-10T19:12:53.236Z,27.35
2022-12-10T19:15:21.402Z,22.58
2022-12-10T19:17:49.496Z,26.02
2022-12-10T19:20:22.833Z,25.73
2022-12-10T19:22:50.576Z,25.73
2022-12-10T19:25:18.049Z,27.40
2022-12-10T19:27:45.437Z,26.23
2022-12-10T19:30:24.813Z,27.98
2022-12-10T19:32:52.070Z,23.02
2022-12-10T19:35:22.034Z,26.13
2022-12-10T19:37:56.042Z,27.90
2022-12-10T19:40:43.196Z,25.60
2022-12-10T19:43:14.090Z,25.23
2022-12-10T19:45:41.352Z,26.05
2022-12-10T19:48:10.147Z,28.52
2022-12-10T19:50:37.142Z,22.73
2022-12-10T19:53:04.974Z,25.77
2022-12-10T19:55:32.011Z,25.38
2022-12-10T19:57:59.220Z,28.73
2022-12-10T20:00:33.373Z,26.38
2022-12-10T20:03:00.378Z,23.85
2022-12-10T20:05:27.691Z,22.30
2022-12-10T20:07:54.704Z,27.40
2022-12-10T20:10:29.831Z,23.30
2022-12-10T20:12:56.988Z,24.13
2022-12-10T20:15:25.823Z,26.85
2022-12-10T20:17:53.426Z,24.65
2022-12-10T20:20:27.359Z,20.90
2022-12-10T20:22:55.314Z,26.45
2022-12-10T20:25:23.542Z,23.63
2022-12-10T20:27:50.991Z,24.15
2022-12-10T20:30:28.421Z,24.02
2022-12-10T20:32:55.979Z,24.27
2022-12-10T20:35:24.139Z,28.45
2022-12-10T20:37:51.396Z,24.05
2022-12-10T20:40:31.900Z,26.77
2022-12-10T20:42:59.934Z,34.17
2022-12-10T20:45:26.868Z,30.58
2022-12-10T20:47:53.744Z,32.03
2022-12-10T20:50:21.018Z,33.38
2022-12-10T20:52:48.030Z,29.33
2022-12-10T20:55:16.219Z,32.20
2022-12-10T20:57:43.188Z,32.88
2022-12-10T21:00:17.055Z,33.30
2022-12-10T21:02:44.895Z,28.77
2022-12-10T21:05:13.478Z,26.67
2022-12-10T21:07:40.776Z,28.63
2022-12-10T21:10:28.746Z,25.10
2022-12-10T21:12:55.561Z,20.70
2022-12-10T21:15:24.040Z,18.98
2022-12-10T21:17:51.146Z,19.70
2022-12-10T21:20:18.429Z,21.35
2022-12-10T21:22:45.654Z,20.33
2022-12-10T21:25:13.634Z,19.50
2022-12-10T21:27:41.301Z,18.08
2022-12-10T21:30:08.926Z,20.90
2022-12-10T21:32:35.690Z,19.63
2022-12-10T21:35:02.471Z,21.02
2022-12-10T21:37:29.301Z,19.08
2022-12-10T21:39:57.609Z,21.42
2022-12-10T21:42:42.787Z,22.05
2022-12-10T21:45:09.937Z,19.17
2022-12-10T21:47:37.019Z,23.38
2022-12-10T21:50:03.965Z,17.92
2022-12-10T21:52:30.848Z,22.70
2022-12-10T21:54:57.663Z,18.48
2022-12-10T21:57:24.520Z,18.65
2022-12-10T21:59:51.818Z,18.63
2022-12-10T22:02:18.682Z,17.65
2022-12-10T22:04:45.824Z,23.38
2022-12-10T22:07:12.640Z,24.55
2022-12-10T22:09:39.442Z,20.75
2022-12-10T22:12:06.461Z,18.92
2022-12-10T22:14:33.341Z,19.77
2022-12-10T22:17:00.196Z,16.90
2022-12-10T22:19:27.268Z,18.55
2022-12-10T22:21:54.133Z,19.67
2022-12-10T22:24:20.927Z,19.80
2022-12-10T22:26:47.772Z,22.17
2022-12-10T22:29:14.666Z,21.73
2022-12-10T22:31:41.613Z,24.30
2022-12-10T22:34:08.587Z,18.20
2022-12-10T22:36:35.448Z,26.27
2022-12-10T22:39:02.310Z,18.15
2022-12-10T22:41:29.222Z,21.35
2022-12-10T22:43:56.250Z,18.00
2022-12-10T22:46:23.144Z,23.08
2022-12-10T22:48:50.814Z,19.50
2022-12-10T22:51:18.028Z,20.08
2022-12-10T22:53:45.165Z,17.67
2022-12-10T22:56:13.834Z,17.17
2022-12-10T22:58:41.096Z,19.40
2022-12-10T23:01:16.323Z,14.27
2022-12-10T23:03:43.453Z,16.50
2022-12-10T23:06:11.322Z,15.82
2022-12-10T23:08:38.557Z,16.85
2022-12-10T23:11:06.913Z,17.80
2022-12-10T23:13:38.128Z,20.40
2022-12-10T23:16:07.966Z,15.70
2022-12-10T23:18:35.440Z,17.02
2022-12-10T23:21:02.383Z,14.57
2022-12-10T23:23:29.453Z,15.15
2022-12-10T23:25:56.514Z,16.00
2022-12-10T23:28:23.329Z,15.73
2022-12-10T23:30:58.697Z,15.60
2022-12-10T23:33:25.662Z,15.25
2022-12-10T23:35:52.636Z,14.70
2022-12-10T23:38:19.494Z,18.65
2022-12-10T23:40:46.277Z,16.85
2022-12-10T23:43:13.630Z,14.68
2022-12-10T23:45:41.573Z,16.25
2022-12-10T23:48:09.007Z,15.75
2022-12-10T23:50:36.835Z,15.55
2022-12-10T23:53:05.331Z,14.95
2022-12-10T23:55:32.329Z,14.75
2022-12-10T23:57:59.274Z,18.67
